Alabama Port, Alabama
Current Conditions -  °F | °C
As of 11:53 AM on Saturday 25 Oct 2014 (Local Time) from KBFM Reporting Station
Clear Clear  
Wind Chill: 73°   Ceiling: Unl
Heat Index: 73°   Visibility: 10mi
Dew Point: 53°   Wind: 13mph
Humidity: 49%   Direction: 350°N
Pressure: 30.13"   Gusts: 18mph
Location:  30.4032°N, 88.1801°W
Report Text: KBFM 251653Z 35011G16KT 10SM CLR 23/12 A3013 RMK AO2 SLP204 T02280117
Loading
Personal Weather Stations






























Interactive Weather Map New forecast layout! Learn more

10-Day Weather Forecast

Advertisements
Track Severe Weather on mobile